Huvudsida
METAR-TAF:

METAR-TAF

Flygplatser :

Arlanda

Stockholm-Arlanda, Sverige

latitud: 59-39N, longitud: 017-57E, höjd: 38 m

Aktuellt väderrapport

Denna rapport gjordes för 30 minuter sedan, klockan 20:20 UTC
Vind 10 kt från sydväst
Temperatur 6°C
Fuktighet 87%
Tryck 1036 hPa
Sikt 10 km eller mer
Inga moln under 1 500 m eller inga cumulonimbus

METAR: ESSA 162020Z 23010KT CAVOK 06/04 Q1036 R01L/0///95 R08/0///95 R01R/0///95 NOSIG

Tid: 21:50 (20:50 UTC)

Väderprognos

Denna rapport gjordes för 3 timmar och 20 minuter sedan, klockan 17:30 UTC
Prognos gäller från 16 kl. 18 UTC till 17 kl. 18 UTC
Vind 10 kt från väst/sydväst
Sikt 10 km eller mer
Brutna moln på en höjd av 2000 ft

TAF: ESSA 161730Z 1618/1718 24010KT 9999 BKN020

Aktuella väderrapporter och prognoser från 4000 flygplatser (METAR- och TAF-rapporter).

De tillgängliga stationerna syns som gula och röda prickar på kartan.

För musen över prickarna för att se namnen på stationerna.

Klicka sedan för att få väderrapporter och prognoser.

För att ändra kartan: Klicka på de gröna knapparna med ett svart kors på för att zooma in; den gröna knappen med ett streck på för att zooma ut; eller på de gröna pilarna för angränsande kartor.


METAR-TAF: